sensor_id;sensor_type;location;lat;lon;timestamp;P1;durP1;ratioP1;P2;durP2;ratioP2
74233;SDS011;62591;55.764;37.718;2023-03-23T00:01:00;3.40;;;2.33;;
74233;SDS011;62591;55.764;37.718;2023-03-23T00:03:29;3.63;;;2.13;;
74233;SDS011;62591;55.764;37.718;2023-03-23T00:05:59;3.67;;;2.28;;
74233;SDS011;62591;55.764;37.718;2023-03-23T00:08:30;4.13;;;2.33;;
74233;SDS011;62591;55.764;37.718;2023-03-23T00:10:58;4.15;;;2.15;;
74233;SDS011;62591;55.764;37.718;2023-03-23T00:13:27;4.43;;;2.22;;
74233;SDS011;62591;55.764;37.718;2023-03-23T00:15:56;3.42;;;2.03;;
74233;SDS011;62591;55.764;37.718;2023-03-23T00:18:24;3.45;;;2.10;;
74233;SDS011;62591;55.764;37.718;2023-03-23T00:20:54;3.58;;;2.30;;
74233;SDS011;62591;55.764;37.718;2023-03-23T00:23:24;4.05;;;2.30;;
74233;SDS011;62591;55.764;37.718;2023-03-23T00:25:54;4.35;;;2.25;;
74233;SDS011;62591;55.764;37.718;2023-03-23T00:28:23;3.78;;;2.25;;
74233;SDS011;62591;55.764;37.718;2023-03-23T00:30:56;4.05;;;2.58;;
74233;SDS011;62591;55.764;37.718;2023-03-23T00:33:24;4.72;;;2.60;;
74233;SDS011;62591;55.764;37.718;2023-03-23T00:35:53;5.10;;;2.50;;
74233;SDS011;62591;55.764;37.718;2023-03-23T00:38:21;4.50;;;2.55;;
74233;SDS011;62591;55.764;37.718;2023-03-23T00:40:52;4.18;;;2.47;;
74233;SDS011;62591;55.764;37.718;2023-03-23T00:43:23;5.03;;;2.35;;
74233;SDS011;62591;55.764;37.718;2023-03-23T00:45:54;3.78;;;2.33;;
74233;SDS011;62591;55.764;37.718;2023-03-23T00:48:22;3.70;;;2.40;;
74233;SDS011;62591;55.764;37.718;2023-03-23T00:50:51;3.83;;;2.30;;
74233;SDS011;62591;55.764;37.718;2023-03-23T00:53:20;4.70;;;2.85;;
74233;SDS011;62591;55.764;37.718;2023-03-23T00:55:49;7.07;;;2.60;;
74233;SDS011;62591;55.764;37.718;2023-03-23T00:58:17;5.45;;;2.47;;
74233;SDS011;62591;55.764;37.718;2023-03-23T01:00:44;4.13;;;2.65;;
74233;SDS011;62591;55.764;37.718;2023-03-23T01:03:12;3.67;;;2.15;;
74233;SDS011;62591;55.764;37.718;2023-03-23T01:05:44;5.00;;;2.80;;
74233;SDS011;62591;55.764;37.718;2023-03-23T01:08:13;4.57;;;2.22;;
74233;SDS011;62591;55.764;37.718;2023-03-23T01:10:41;6.00;;;2.50;;
74233;SDS011;62591;55.764;37.718;2023-03-23T01:13:11;4.90;;;2.70;;
74233;SDS011;62591;55.764;37.718;2023-03-23T01:15:40;5.32;;;2.67;;
74233;SDS011;62591;55.764;37.718;2023-03-23T01:18:08;4.63;;;2.65;;
74233;SDS011;62591;55.764;37.718;2023-03-23T01:20:36;4.85;;;2.55;;
74233;SDS011;62591;55.764;37.718;2023-03-23T01:23:03;5.03;;;2.60;;
74233;SDS011;62591;55.764;37.718;2023-03-23T01:25:34;5.78;;;3.08;;
74233;SDS011;62591;55.764;37.718;2023-03-23T01:28:02;4.13;;;2.50;;
74233;SDS011;62591;55.764;37.718;2023-03-23T01:30:34;4.82;;;2.42;;
74233;SDS011;62591;55.764;37.718;2023-03-23T01:33:02;3.95;;;2.30;;
74233;SDS011;62591;55.764;37.718;2023-03-23T01:35:30;4.32;;;2.70;;
74233;SDS011;62591;55.764;37.718;2023-03-23T01:37:57;3.92;;;2.50;;
74233;SDS011;62591;55.764;37.718;2023-03-23T01:40:26;3.97;;;2.58;;
74233;SDS011;62591;55.764;37.718;2023-03-23T01:42:55;5.32;;;2.90;;
74233;SDS011;62591;55.764;37.718;2023-03-23T01:45:26;4.20;;;2.85;;
74233;SDS011;62591;55.764;37.718;2023-03-23T01:48:03;4.10;;;2.53;;
74233;SDS011;62591;55.764;37.718;2023-03-23T01:50:37;4.47;;;2.63;;
74233;SDS011;62591;55.764;37.718;2023-03-23T01:53:11;3.85;;;2.70;;
74233;SDS011;62591;55.764;37.718;2023-03-23T01:55:40;5.35;;;3.08;;
74233;SDS011;62591;55.764;37.718;2023-03-23T01:58:14;4.50;;;2.65;;
74233;SDS011;62591;55.764;37.718;2023-03-23T02:00:43;5.72;;;2.70;;
74233;SDS011;62591;55.764;37.718;2023-03-23T02:03:13;4.38;;;2.55;;
74233;SDS011;62591;55.764;37.718;2023-03-23T02:05:42;3.85;;;2.80;;
74233;SDS011;62591;55.764;37.718;2023-03-23T02:10:44;5.18;;;2.45;;
74233;SDS011;62591;55.764;37.718;2023-03-23T02:13:12;5.65;;;2.70;;
74233;SDS011;62591;55.764;37.718;2023-03-23T02:15:43;4.45;;;2.45;;
74233;SDS011;62591;55.764;37.718;2023-03-23T02:21:24;6.68;;;2.80;;
74233;SDS011;62591;55.764;37.718;2023-03-23T02:26:56;4.63;;;2.45;;
74233;SDS011;62591;55.764;37.718;2023-03-23T02:29:36;5.82;;;2.88;;
74233;SDS011;62591;55.764;37.718;2023-03-23T02:32:31;4.07;;;2.53;;
74233;SDS011;62591;55.764;37.718;2023-03-23T02:35:23;3.80;;;2.50;;
74233;SDS011;62591;55.764;37.718;2023-03-23T02:37:56;6.32;;;2.63;;
74233;SDS011;62591;55.764;37.718;2023-03-23T02:40:28;5.28;;;2.53;;
74233;SDS011;62591;55.764;37.718;2023-03-23T02:43:00;4.90;;;2.70;;
74233;SDS011;62591;55.764;37.718;2023-03-23T02:45:29;5.15;;;2.80;;
74233;SDS011;62591;55.764;37.718;2023-03-23T02:48:01;4.90;;;2.47;;
74233;SDS011;62591;55.764;37.718;2023-03-23T02:50:32;4.05;;;2.58;;
74233;SDS011;62591;55.764;37.718;2023-03-23T02:53:03;4.80;;;2.70;;
74233;SDS011;62591;55.764;37.718;2023-03-23T02:55:34;4.70;;;2.78;;
74233;SDS011;62591;55.764;37.718;2023-03-23T02:58:10;4.65;;;2.95;;
74233;SDS011;62591;55.764;37.718;2023-03-23T03:00:40;4.57;;;2.60;;
74233;SDS011;62591;55.764;37.718;2023-03-23T03:03:10;5.90;;;2.78;;
74233;SDS011;62591;55.764;37.718;2023-03-23T03:05:42;7.80;;;2.53;;
74233;SDS011;62591;55.764;37.718;2023-03-23T03:08:18;3.92;;;2.53;;
74233;SDS011;62591;55.764;37.718;2023-03-23T03:10:52;8.10;;;4.57;;
74233;SDS011;62591;55.764;37.718;2023-03-23T03:13:30;4.38;;;2.63;;
74233;SDS011;62591;55.764;37.718;2023-03-23T03:16:05;9.10;;;4.65;;
74233;SDS011;62591;55.764;37.718;2023-03-23T03:18:42;6.70;;;3.40;;
74233;SDS011;62591;55.764;37.718;2023-03-23T03:21:15;9.65;;;3.95;;
74233;SDS011;62591;55.764;37.718;2023-03-23T03:23:54;6.00;;;3.35;;
74233;SDS011;62591;55.764;37.718;2023-03-23T03:26:27;4.70;;;3.00;;
74233;SDS011;62591;55.764;37.718;2023-03-23T03:29:10;5.75;;;3.20;;
74233;SDS011;62591;55.764;37.718;2023-03-23T03:31:43;6.80;;;2.75;;
74233;SDS011;62591;55.764;37.718;2023-03-23T03:34:13;6.22;;;2.85;;
74233;SDS011;62591;55.764;37.718;2023-03-23T03:36:47;5.50;;;2.92;;
74233;SDS011;62591;55.764;37.718;2023-03-23T03:39:17;5.60;;;3.33;;
74233;SDS011;62591;55.764;37.718;2023-03-23T03:41:46;6.75;;;2.72;;
74233;SDS011;62591;55.764;37.718;2023-03-23T03:44:15;6.53;;;3.90;;
74233;SDS011;62591;55.764;37.718;2023-03-23T03:46:43;5.78;;;3.35;;
74233;SDS011;62591;55.764;37.718;2023-03-23T03:49:11;4.75;;;3.05;;
74233;SDS011;62591;55.764;37.718;2023-03-23T03:51:40;5.05;;;3.00;;
74233;SDS011;62591;55.764;37.718;2023-03-23T03:54:17;6.82;;;3.20;;
74233;SDS011;62591;55.764;37.718;2023-03-23T03:56:44;4.63;;;2.90;;
74233;SDS011;62591;55.764;37.718;2023-03-23T03:59:32;7.05;;;3.28;;
74233;SDS011;62591;55.764;37.718;2023-03-23T04:02:18;4.88;;;2.90;;
74233;SDS011;62591;55.764;37.718;2023-03-23T04:04:49;5.70;;;3.17;;
74233;SDS011;62591;55.764;37.718;2023-03-23T04:07:19;5.47;;;3.00;;
74233;SDS011;62591;55.764;37.718;2023-03-23T04:09:49;5.45;;;2.88;;
74233;SDS011;62591;55.764;37.718;2023-03-23T04:12:19;6.07;;;3.40;;
74233;SDS011;62591;55.764;37.718;2023-03-23T04:14:55;5.88;;;3.13;;
74233;SDS011;62591;55.764;37.718;2023-03-23T04:17:29;6.47;;;3.35;;
74233;SDS011;62591;55.764;37.718;2023-03-23T04:19:56;6.90;;;3.25;;
74233;SDS011;62591;55.764;37.718;2023-03-23T04:22:28;6.88;;;3.50;;
74233;SDS011;62591;55.764;37.718;2023-03-23T04:25:00;8.13;;;3.40;;
74233;SDS011;62591;55.764;37.718;2023-03-23T04:27:34;6.75;;;3.50;;
74233;SDS011;62591;55.764;37.718;2023-03-23T04:30:04;6.38;;;3.45;;
74233;SDS011;62591;55.764;37.718;2023-03-23T04:32:45;8.40;;;3.78;;
74233;SDS011;62591;55.764;37.718;2023-03-23T04:35:31;10.13;;;3.72;;
74233;SDS011;62591;55.764;37.718;2023-03-23T04:38:12;6.03;;;3.60;;
74233;SDS011;62591;55.764;37.718;2023-03-23T04:40:45;7.38;;;4.03;;
74233;SDS011;62591;55.764;37.718;2023-03-23T04:43:25;8.10;;;3.97;;
74233;SDS011;62591;55.764;37.718;2023-03-23T04:46:11;7.57;;;3.78;;
74233;SDS011;62591;55.764;37.718;2023-03-23T04:48:45;8.10;;;3.83;;
74233;SDS011;62591;55.764;37.718;2023-03-23T04:53:49;7.78;;;4.75;;
74233;SDS011;62591;55.764;37.718;2023-03-23T04:56:20;7.78;;;4.18;;
74233;SDS011;62591;55.764;37.718;2023-03-23T04:58:47;10.45;;;4.57;;
74233;SDS011;62591;55.764;37.718;2023-03-23T05:01:28;10.38;;;4.70;;
74233;SDS011;62591;55.764;37.718;2023-03-23T05:04:21;7.95;;;4.63;;
74233;SDS011;62591;55.764;37.718;2023-03-23T05:07:04;9.23;;;5.07;;
74233;SDS011;62591;55.764;37.718;2023-03-23T05:09:36;10.02;;;4.68;;
74233;SDS011;62591;55.764;37.718;2023-03-23T05:12:05;7.68;;;4.70;;
74233;SDS011;62591;55.764;37.718;2023-03-23T05:14:41;9.38;;;4.80;;
74233;SDS011;62591;55.764;37.718;2023-03-23T05:17:12;10.23;;;4.82;;
74233;SDS011;62591;55.764;37.718;2023-03-23T05:19:43;8.32;;;4.90;;
74233;SDS011;62591;55.764;37.718;2023-03-23T05:22:45;10.90;;;5.22;;
74233;SDS011;62591;55.764;37.718;2023-03-23T05:25:18;9.70;;;5.25;;
74233;SDS011;62591;55.764;37.718;2023-03-23T05:27:53;8.45;;;5.13;;
74233;SDS011;62591;55.764;37.718;2023-03-23T05:30:53;9.88;;;5.22;;
74233;SDS011;62591;55.764;37.718;2023-03-23T05:33:23;10.75;;;4.95;;
74233;SDS011;62591;55.764;37.718;2023-03-23T05:36:00;11.40;;;5.00;;
74233;SDS011;62591;55.764;37.718;2023-03-23T05:38:34;12.05;;;5.85;;
74233;SDS011;62591;55.764;37.718;2023-03-23T05:41:06;18.30;;;6.22;;
74233;SDS011;62591;55.764;37.718;2023-03-23T05:43:41;8.57;;;4.75;;
74233;SDS011;62591;55.764;37.718;2023-03-23T05:46:19;9.90;;;5.75;;
74233;SDS011;62591;55.764;37.718;2023-03-23T05:48:48;10.18;;;5.18;;
74233;SDS011;62591;55.764;37.718;2023-03-23T05:51:19;10.55;;;5.63;;
74233;SDS011;62591;55.764;37.718;2023-03-23T05:53:47;13.50;;;5.90;;
74233;SDS011;62591;55.764;37.718;2023-03-23T05:56:16;10.68;;;5.47;;
74233;SDS011;62591;55.764;37.718;2023-03-23T05:59:08;10.90;;;5.88;;
74233;SDS011;62591;55.764;37.718;2023-03-23T06:01:38;11.10;;;5.47;;
74233;SDS011;62591;55.764;37.718;2023-03-23T06:04:06;11.23;;;6.00;;
74233;SDS011;62591;55.764;37.718;2023-03-23T06:06:44;12.32;;;5.25;;
74233;SDS011;62591;55.764;37.718;2023-03-23T06:09:13;11.98;;;5.72;;
74233;SDS011;62591;55.764;37.718;2023-03-23T06:11:59;10.98;;;5.72;;
74233;SDS011;62591;55.764;37.718;2023-03-23T06:14:45;9.43;;;5.82;;
74233;SDS011;62591;55.764;37.718;2023-03-23T06:17:15;10.35;;;5.63;;
74233;SDS011;62591;55.764;37.718;2023-03-23T06:19:44;12.57;;;5.47;;
74233;SDS011;62591;55.764;37.718;2023-03-23T06:22:15;12.65;;;7.18;;
74233;SDS011;62591;55.764;37.718;2023-03-23T06:24:42;21.15;;;6.18;;
74233;SDS011;62591;55.764;37.718;2023-03-23T06:27:13;14.18;;;6.20;;
74233;SDS011;62591;55.764;37.718;2023-03-23T06:29:44;11.68;;;5.82;;
74233;SDS011;62591;55.764;37.718;2023-03-23T06:32:12;16.05;;;7.10;;
74233;SDS011;62591;55.764;37.718;2023-03-23T06:34:42;12.75;;;6.15;;
74233;SDS011;62591;55.764;37.718;2023-03-23T06:37:40;15.40;;;7.18;;
74233;SDS011;62591;55.764;37.718;2023-03-23T06:40:15;11.57;;;6.32;;
74233;SDS011;62591;55.764;37.718;2023-03-23T06:42:50;11.85;;;5.88;;
74233;SDS011;62591;55.764;37.718;2023-03-23T06:45:25;12.15;;;6.07;;
74233;SDS011;62591;55.764;37.718;2023-03-23T06:48:10;11.23;;;6.13;;
74233;SDS011;62591;55.764;37.718;2023-03-23T06:50:37;11.43;;;6.60;;
74233;SDS011;62591;55.764;37.718;2023-03-23T06:53:06;15.98;;;7.15;;
74233;SDS011;62591;55.764;37.718;2023-03-23T06:55:35;12.50;;;6.22;;
74233;SDS011;62591;55.764;37.718;2023-03-23T06:58:03;14.98;;;6.55;;
74233;SDS011;62591;55.764;37.718;2023-03-23T07:00:32;12.63;;;6.78;;
74233;SDS011;62591;55.764;37.718;2023-03-23T07:03:00;19.92;;;6.32;;
74233;SDS011;62591;55.764;37.718;2023-03-23T07:05:30;13.35;;;6.30;;
74233;SDS011;62591;55.764;37.718;2023-03-23T07:07:59;19.10;;;7.63;;
74233;SDS011;62591;55.764;37.718;2023-03-23T07:10:34;12.20;;;5.90;;
74233;SDS011;62591;55.764;37.718;2023-03-23T07:13:03;10.80;;;5.95;;
74233;SDS011;62591;55.764;37.718;2023-03-23T07:15:44;15.60;;;5.88;;
74233;SDS011;62591;55.764;37.718;2023-03-23T07:18:12;9.98;;;6.22;;
74233;SDS011;62591;55.764;37.718;2023-03-23T07:20:46;12.45;;;5.90;;
74233;SDS011;62591;55.764;37.718;2023-03-23T07:23:15;11.63;;;5.75;;
74233;SDS011;62591;55.764;37.718;2023-03-23T07:25:49;15.50;;;6.93;;
74233;SDS011;62591;55.764;37.718;2023-03-23T07:28:22;11.07;;;6.20;;
74233;SDS011;62591;55.764;37.718;2023-03-23T07:30:53;9.88;;;6.30;;
74233;SDS011;62591;55.764;37.718;2023-03-23T07:33:21;12.18;;;6.07;;
74233;SDS011;62591;55.764;37.718;2023-03-23T07:35:49;11.07;;;5.88;;
74233;SDS011;62591;55.764;37.718;2023-03-23T07:38:18;9.50;;;5.60;;
74233;SDS011;62591;55.764;37.718;2023-03-23T07:40:48;10.85;;;5.50;;
74233;SDS011;62591;55.764;37.718;2023-03-23T07:43:18;13.80;;;5.63;;
74233;SDS011;62591;55.764;37.718;2023-03-23T07:46:06;11.73;;;5.53;;
74233;SDS011;62591;55.764;37.718;2023-03-23T07:48:54;10.02;;;5.45;;
74233;SDS011;62591;55.764;37.718;2023-03-23T07:51:28;8.43;;;5.60;;
74233;SDS011;62591;55.764;37.718;2023-03-23T07:53:55;11.07;;;5.95;;
74233;SDS011;62591;55.764;37.718;2023-03-23T07:56:41;11.23;;;5.60;;
74233;SDS011;62591;55.764;37.718;2023-03-23T07:59:30;16.73;;;5.65;;
74233;SDS011;62591;55.764;37.718;2023-03-23T08:02:00;10.13;;;5.57;;
74233;SDS011;62591;55.764;37.718;2023-03-23T08:04:27;10.27;;;5.55;;
74233;SDS011;62591;55.764;37.718;2023-03-23T08:07:13;10.98;;;5.15;;
74233;SDS011;62591;55.764;37.718;2023-03-23T08:10:08;10.05;;;5.30;;
74233;SDS011;62591;55.764;37.718;2023-03-23T08:12:56;13.65;;;5.55;;
74233;SDS011;62591;55.764;37.718;2023-03-23T08:15:28;11.35;;;4.95;;
74233;SDS011;62591;55.764;37.718;2023-03-23T08:18:19;12.90;;;5.65;;
74233;SDS011;62591;55.764;37.718;2023-03-23T08:21:07;8.57;;;5.22;;
74233;SDS011;62591;55.764;37.718;2023-03-23T08:23:58;9.60;;;5.22;;
74233;SDS011;62591;55.764;37.718;2023-03-23T08:26:36;14.02;;;5.28;;
74233;SDS011;62591;55.764;37.718;2023-03-23T08:29:24;9.27;;;5.03;;
74233;SDS011;62591;55.764;37.718;2023-03-23T08:32:15;8.65;;;4.97;;
74233;SDS011;62591;55.764;37.718;2023-03-23T08:35:04;12.88;;;5.22;;
74233;SDS011;62591;55.764;37.718;2023-03-23T08:37:59;11.00;;;5.35;;
74233;SDS011;62591;55.764;37.718;2023-03-23T08:40:49;10.18;;;5.30;;
74233;SDS011;62591;55.764;37.718;2023-03-23T08:43:49;8.52;;;4.57;;
74233;SDS011;62591;55.764;37.718;2023-03-23T08:46:17;9.50;;;5.35;;
74233;SDS011;62591;55.764;37.718;2023-03-23T08:49:08;10.80;;;4.82;;
74233;SDS011;62591;55.764;37.718;2023-03-23T08:52:09;11.73;;;5.38;;
74233;SDS011;62591;55.764;37.718;2023-03-23T08:54:54;13.07;;;5.22;;
74233;SDS011;62591;55.764;37.718;2023-03-23T08:57:48;7.60;;;5.38;;
74233;SDS011;62591;55.764;37.718;2023-03-23T09:00:42;9.43;;;5.30;;
74233;SDS011;62591;55.764;37.718;2023-03-23T09:03:32;11.07;;;5.45;;
74233;SDS011;62591;55.764;37.718;2023-03-23T09:06:23;15.98;;;5.15;;
74233;SDS011;62591;55.764;37.718;2023-03-23T09:08:51;10.18;;;5.57;;
74233;SDS011;62591;55.764;37.718;2023-03-23T09:11:21;10.32;;;5.05;;
74233;SDS011;62591;55.764;37.718;2023-03-23T09:13:48;13.70;;;5.57;;
74233;SDS011;62591;55.764;37.718;2023-03-23T09:16:16;7.82;;;5.20;;
74233;SDS011;62591;55.764;37.718;2023-03-23T09:18:43;12.07;;;5.63;;
74233;SDS011;62591;55.764;37.718;2023-03-23T09:21:11;7.00;;;5.05;;
74233;SDS011;62591;55.764;37.718;2023-03-23T09:23:39;7.25;;;5.20;;
74233;SDS011;62591;55.764;37.718;2023-03-23T09:26:11;8.23;;;4.88;;
74233;SDS011;62591;55.764;37.718;2023-03-23T09:28:38;11.45;;;4.88;;
74233;SDS011;62591;55.764;37.718;2023-03-23T09:31:05;8.70;;;5.40;;
74233;SDS011;62591;55.764;37.718;2023-03-23T09:33:36;9.73;;;5.05;;
74233;SDS011;62591;55.764;37.718;2023-03-23T09:36:04;14.52;;;5.03;;
74233;SDS011;62591;55.764;37.718;2023-03-23T09:38:33;8.82;;;5.35;;
74233;SDS011;62591;55.764;37.718;2023-03-23T09:41:04;10.75;;;5.03;;
74233;SDS011;62591;55.764;37.718;2023-03-23T09:43:50;6.30;;;4.88;;
74233;SDS011;62591;55.764;37.718;2023-03-23T09:49:02;11.57;;;5.18;;
74233;SDS011;62591;55.764;37.718;2023-03-23T09:51:38;7.95;;;4.75;;
74233;SDS011;62591;55.764;37.718;2023-03-23T09:54:11;11.82;;;5.15;;
74233;SDS011;62591;55.764;37.718;2023-03-23T09:56:44;10.27;;;4.90;;
74233;SDS011;62591;55.764;37.718;2023-03-23T09:59:16;9.38;;;5.30;;
74233;SDS011;62591;55.764;37.718;2023-03-23T10:01:50;10.43;;;4.85;;
74233;SDS011;62591;55.764;37.718;2023-03-23T10:04:34;8.02;;;4.30;;
74233;SDS011;62591;55.764;37.718;2023-03-23T10:07:08;8.70;;;4.72;;
74233;SDS011;62591;55.764;37.718;2023-03-23T10:09:39;8.48;;;4.40;;
74233;SDS011;62591;55.764;37.718;2023-03-23T10:12:10;9.93;;;5.00;;
74233;SDS011;62591;55.764;37.718;2023-03-23T10:17:41;7.53;;;4.30;;
74233;SDS011;62591;55.764;37.718;2023-03-23T10:20:17;7.70;;;4.88;;
74233;SDS011;62591;55.764;37.718;2023-03-23T10:22:51;9.30;;;4.97;;
74233;SDS011;62591;55.764;37.718;2023-03-23T10:25:22;7.82;;;4.72;;
74233;SDS011;62591;55.764;37.718;2023-03-23T10:27:54;6.75;;;4.57;;
74233;SDS011;62591;55.764;37.718;2023-03-23T10:30:31;8.60;;;4.75;;
74233;SDS011;62591;55.764;37.718;2023-03-23T10:33:02;8.63;;;5.50;;
74233;SDS011;62591;55.764;37.718;2023-03-23T10:35:34;7.90;;;5.05;;
74233;SDS011;62591;55.764;37.718;2023-03-23T10:38:06;5.82;;;4.25;;
74233;SDS011;62591;55.764;37.718;2023-03-23T10:40:43;6.00;;;4.40;;
74233;SDS011;62591;55.764;37.718;2023-03-23T10:43:15;13.07;;;4.53;;
74233;SDS011;62591;55.764;37.718;2023-03-23T10:45:44;9.98;;;4.65;;
74233;SDS011;62591;55.764;37.718;2023-03-23T10:48:17;7.75;;;4.60;;
74233;SDS011;62591;55.764;37.718;2023-03-23T10:50:50;11.27;;;4.65;;
74233;SDS011;62591;55.764;37.718;2023-03-23T10:53:21;10.23;;;4.90;;
74233;SDS011;62591;55.764;37.718;2023-03-23T10:55:51;10.63;;;4.43;;
74233;SDS011;62591;55.764;37.718;2023-03-23T10:58:25;9.77;;;4.70;;
74233;SDS011;62591;55.764;37.718;2023-03-23T11:00:56;13.63;;;4.72;;
74233;SDS011;62591;55.764;37.718;2023-03-23T11:03:29;8.27;;;4.47;;
74233;SDS011;62591;55.764;37.718;2023-03-23T11:06:06;11.60;;;4.55;;
74233;SDS011;62591;55.764;37.718;2023-03-23T11:08:36;6.93;;;4.22;;
74233;SDS011;62591;55.764;37.718;2023-03-23T11:11:15;6.35;;;4.00;;
74233;SDS011;62591;55.764;37.718;2023-03-23T11:13:44;17.98;;;5.13;;
74233;SDS011;62591;55.764;37.718;2023-03-23T11:16:23;13.05;;;5.30;;
74233;SDS011;62591;55.764;37.718;2023-03-23T11:18:51;6.63;;;3.92;;
74233;SDS011;62591;55.764;37.718;2023-03-23T11:21:19;12.18;;;4.55;;
74233;SDS011;62591;55.764;37.718;2023-03-23T11:23:49;7.80;;;3.80;;
74233;SDS011;62591;55.764;37.718;2023-03-23T11:26:20;7.40;;;3.88;;
74233;SDS011;62591;55.764;37.718;2023-03-23T11:28:51;9.27;;;4.63;;
74233;SDS011;62591;55.764;37.718;2023-03-23T11:31:24;5.68;;;3.60;;
74233;SDS011;62591;55.764;37.718;2023-03-23T11:33:58;9.52;;;4.22;;
74233;SDS011;62591;55.764;37.718;2023-03-23T11:36:28;6.82;;;4.15;;
74233;SDS011;62591;55.764;37.718;2023-03-23T11:39:02;4.88;;;3.50;;
74233;SDS011;62591;55.764;37.718;2023-03-23T11:41:44;5.47;;;3.10;;
74233;SDS011;62591;55.764;37.718;2023-03-23T11:44:12;6.30;;;3.30;;
74233;SDS011;62591;55.764;37.718;2023-03-23T11:46:44;6.78;;;4.38;;
74233;SDS011;62591;55.764;37.718;2023-03-23T11:49:24;5.45;;;3.80;;
74233;SDS011;62591;55.764;37.718;2023-03-23T11:51:59;8.07;;;3.80;;
74233;SDS011;62591;55.764;37.718;2023-03-23T11:54:33;5.28;;;3.42;;
74233;SDS011;62591;55.764;37.718;2023-03-23T11:57:05;7.05;;;3.95;;
74233;SDS011;62591;55.764;37.718;2023-03-23T11:59:35;7.20;;;3.65;;
74233;SDS011;62591;55.764;37.718;2023-03-23T12:02:12;7.32;;;3.20;;
74233;SDS011;62591;55.764;37.718;2023-03-23T12:05:06;7.63;;;3.28;;
74233;SDS011;62591;55.764;37.718;2023-03-23T12:07:54;6.07;;;3.30;;
74233;SDS011;62591;55.764;37.718;2023-03-23T12:10:33;6.63;;;3.28;;
74233;SDS011;62591;55.764;37.718;2023-03-23T12:13:14;7.75;;;3.53;;
74233;SDS011;62591;55.764;37.718;2023-03-23T12:15:52;5.72;;;3.63;;
74233;SDS011;62591;55.764;37.718;2023-03-23T12:18:31;8.32;;;3.40;;
74233;SDS011;62591;55.764;37.718;2023-03-23T12:21:06;7.13;;;3.78;;
74233;SDS011;62591;55.764;37.718;2023-03-23T12:23:43;6.90;;;3.20;;
74233;SDS011;62591;55.764;37.718;2023-03-23T12:26:19;6.28;;;3.55;;
74233;SDS011;62591;55.764;37.718;2023-03-23T12:28:59;5.85;;;3.42;;
74233;SDS011;62591;55.764;37.718;2023-03-23T12:31:41;9.20;;;3.50;;
74233;SDS011;62591;55.764;37.718;2023-03-23T12:34:17;6.55;;;3.20;;
74233;SDS011;62591;55.764;37.718;2023-03-23T12:39:41;7.78;;;3.85;;
74233;SDS011;62591;55.764;37.718;2023-03-23T12:42:20;5.95;;;3.25;;
74233;SDS011;62591;55.764;37.718;2023-03-23T12:44:57;6.93;;;3.60;;
74233;SDS011;62591;55.764;37.718;2023-03-23T12:47:35;10.68;;;3.70;;
74233;SDS011;62591;55.764;37.718;2023-03-23T12:52:39;9.40;;;3.72;;
74233;SDS011;62591;55.764;37.718;2023-03-23T12:55:15;6.60;;;3.70;;
74233;SDS011;62591;55.764;37.718;2023-03-23T12:57:48;8.95;;;4.00;;
74233;SDS011;62591;55.764;37.718;2023-03-23T13:00:20;7.03;;;3.92;;
74233;SDS011;62591;55.764;37.718;2023-03-23T13:02:53;7.05;;;3.50;;
74233;SDS011;62591;55.764;37.718;2023-03-23T13:05:33;6.45;;;3.88;;
74233;SDS011;62591;55.764;37.718;2023-03-23T13:08:10;6.97;;;3.95;;
74233;SDS011;62591;55.764;37.718;2023-03-23T13:10:43;11.00;;;4.40;;
74233;SDS011;62591;55.764;37.718;2023-03-23T13:13:13;5.82;;;3.50;;
74233;SDS011;62591;55.764;37.718;2023-03-23T13:15:46;5.82;;;3.47;;
74233;SDS011;62591;55.764;37.718;2023-03-23T13:18:29;6.15;;;3.92;;
74233;SDS011;62591;55.764;37.718;2023-03-23T13:21:11;10.73;;;4.05;;
74233;SDS011;62591;55.764;37.718;2023-03-23T13:23:45;10.00;;;4.10;;
74233;SDS011;62591;55.764;37.718;2023-03-23T13:26:17;9.57;;;3.88;;
74233;SDS011;62591;55.764;37.718;2023-03-23T13:28:49;6.20;;;3.75;;
74233;SDS011;62591;55.764;37.718;2023-03-23T13:31:23;8.23;;;3.58;;
74233;SDS011;62591;55.764;37.718;2023-03-23T13:34:01;6.30;;;3.63;;
74233;SDS011;62591;55.764;37.718;2023-03-23T13:36:33;7.63;;;3.50;;
74233;SDS011;62591;55.764;37.718;2023-03-23T13:39:05;6.30;;;3.33;;
74233;SDS011;62591;55.764;37.718;2023-03-23T13:41:47;11.93;;;3.83;;
74233;SDS011;62591;55.764;37.718;2023-03-23T13:44:17;7.72;;;3.80;;
74233;SDS011;62591;55.764;37.718;2023-03-23T13:46:56;8.68;;;4.05;;
74233;SDS011;62591;55.764;37.718;2023-03-23T13:49:32;6.15;;;3.65;;
74233;SDS011;62591;55.764;37.718;2023-03-23T13:52:06;10.95;;;3.90;;
74233;SDS011;62591;55.764;37.718;2023-03-23T13:54:43;6.80;;;3.90;;
74233;SDS011;62591;55.764;37.718;2023-03-23T13:57:23;5.28;;;3.40;;
74233;SDS011;62591;55.764;37.718;2023-03-23T13:59:57;5.43;;;3.03;;
74233;SDS011;62591;55.764;37.718;2023-03-23T14:02:28;6.82;;;3.63;;
74233;SDS011;62591;55.764;37.718;2023-03-23T14:05:08;6.53;;;4.03;;
74233;SDS011;62591;55.764;37.718;2023-03-23T14:07:57;7.43;;;3.60;;
74233;SDS011;62591;55.764;37.718;2023-03-23T14:10:31;5.97;;;3.30;;
74233;SDS011;62591;55.764;37.718;2023-03-23T14:13:04;7.13;;;3.83;;
74233;SDS011;62591;55.764;37.718;2023-03-23T14:15:40;5.60;;;3.63;;
74233;SDS011;62591;55.764;37.718;2023-03-23T14:18:13;8.63;;;3.83;;
74233;SDS011;62591;55.764;37.718;2023-03-23T14:20:42;7.25;;;4.15;;
74233;SDS011;62591;55.764;37.718;2023-03-23T14:23:18;6.07;;;3.88;;
74233;SDS011;62591;55.764;37.718;2023-03-23T14:25:54;7.97;;;4.03;;
74233;SDS011;62591;55.764;37.718;2023-03-23T14:28:22;10.35;;;3.92;;
74233;SDS011;62591;55.764;37.718;2023-03-23T14:30:51;10.40;;;4.72;;
74233;SDS011;62591;55.764;37.718;2023-03-23T14:35:52;9.23;;;3.55;;
74233;SDS011;62591;55.764;37.718;2023-03-23T14:38:21;7.88;;;3.88;;
74233;SDS011;62591;55.764;37.718;2023-03-23T14:40:54;6.05;;;3.70;;
74233;SDS011;62591;55.764;37.718;2023-03-23T14:43:27;13.48;;;4.25;;
74233;SDS011;62591;55.764;37.718;2023-03-23T14:45:56;10.05;;;3.30;;
74233;SDS011;62591;55.764;37.718;2023-03-23T14:48:27;6.95;;;3.40;;
74233;SDS011;62591;55.764;37.718;2023-03-23T14:50:56;8.18;;;3.42;;
74233;SDS011;62591;55.764;37.718;2023-03-23T14:53:30;8.13;;;4.00;;
74233;SDS011;62591;55.764;37.718;2023-03-23T14:56:00;7.38;;;3.50;;
74233;SDS011;62591;55.764;37.718;2023-03-23T14:58:30;5.88;;;3.45;;
74233;SDS011;62591;55.764;37.718;2023-03-23T15:00:58;6.25;;;3.47;;
74233;SDS011;62591;55.764;37.718;2023-03-23T15:03:28;6.57;;;4.13;;
74233;SDS011;62591;55.764;37.718;2023-03-23T15:06:01;7.45;;;3.78;;
74233;SDS011;62591;55.764;37.718;2023-03-23T15:08:34;6.25;;;3.75;;
74233;SDS011;62591;55.764;37.718;2023-03-23T15:11:04;5.93;;;3.70;;
74233;SDS011;62591;55.764;37.718;2023-03-23T15:13:35;7.10;;;4.80;;
74233;SDS011;62591;55.764;37.718;2023-03-23T15:16:06;7.75;;;3.70;;
74233;SDS011;62591;55.764;37.718;2023-03-23T15:18:40;6.72;;;3.38;;
74233;SDS011;62591;55.764;37.718;2023-03-23T15:21:20;7.30;;;3.97;;
74233;SDS011;62591;55.764;37.718;2023-03-23T15:23:51;8.70;;;4.65;;
74233;SDS011;62591;55.764;37.718;2023-03-23T15:26:25;7.13;;;4.20;;
74233;SDS011;62591;55.764;37.718;2023-03-23T15:29:15;7.18;;;3.95;;
74233;SDS011;62591;55.764;37.718;2023-03-23T15:31:45;13.30;;;4.10;;
74233;SDS011;62591;55.764;37.718;2023-03-23T15:34:24;9.02;;;4.40;;
74233;SDS011;62591;55.764;37.718;2023-03-23T15:36:57;6.47;;;4.03;;